createdAt,value
2023-03-29T00:00:16.081Z,94.22
2023-03-29T00:02:49.338Z,94.33
2023-03-29T00:05:24.121Z,90.51
2023-03-29T00:08:03.125Z,90.18
2023-03-29T00:10:33.942Z,82.55
2023-03-29T00:13:03.885Z,82.97
2023-03-29T00:15:32.833Z,82.40
2023-03-29T00:18:02.906Z,79.75
2023-03-29T00:20:32.667Z,78.75
2023-03-29T00:23:02.180Z,79.80
2023-03-29T00:25:31.339Z,80.51
2023-03-29T00:28:00.698Z,80.35
2023-03-29T00:30:29.488Z,81.93
2023-03-29T00:32:58.513Z,77.30
2023-03-29T00:35:28.238Z,75.32
2023-03-29T00:37:58.762Z,77.32
2023-03-29T01:45:49.156Z,64.88
2023-03-29T01:48:29.379Z,63.06
2023-03-29T01:51:07.539Z,62.95
2023-03-29T01:53:44.395Z,59.44
2023-03-29T01:56:19.516Z,60.08
2023-03-29T02:16:26.156Z,59.25
2023-03-29T02:18:58.527Z,56.78
2023-03-29T02:21:35.137Z,57.78
2023-03-29T02:24:08.800Z,56.28
2023-03-29T02:26:39.708Z,57.55
2023-03-29T02:29:08.820Z,54.27
2023-03-29T02:31:49.199Z,55.68
2023-03-29T02:34:29.127Z,56.20
2023-03-29T02:37:09.212Z,57.45
2023-03-29T02:39:39.328Z,58.96
2023-03-29T02:42:09.265Z,56.05
2023-03-29T02:44:41.973Z,54.64
2023-03-29T02:47:33.169Z,55.36
2023-03-29T02:50:02.949Z,57.28
2023-03-29T02:52:40.275Z,55.88
2023-03-29T02:55:17.006Z,57.39
2023-03-29T02:57:46.503Z,55.21
2023-03-29T03:00:16.003Z,55.23
2023-03-29T03:02:45.441Z,54.41
2023-03-29T03:05:14.699Z,53.27
2023-03-29T03:07:43.759Z,53.30
2023-03-29T03:10:12.496Z,55.33
2023-03-29T03:12:41.631Z,54.41
2023-03-29T03:15:11.470Z,52.09
2023-03-29T03:17:43.081Z,53.50
2023-03-29T03:20:13.976Z,54.06
2023-03-29T03:22:49.687Z,52.28
2023-03-29T03:25:22.016Z,49.29
2023-03-29T03:27:53.383Z,49.80
2023-03-29T03:30:25.198Z,46.90
2023-03-29T03:33:29.377Z,47.75
2023-03-29T03:36:17.174Z,47.78
2023-03-29T03:38:47.463Z,46.29
2023-03-29T03:41:18.178Z,47.02
2023-03-29T03:43:49.894Z,49.17
2023-03-29T03:46:19.952Z,47.12
2023-03-29T03:48:52.040Z,45.86
2023-03-29T03:51:25.264Z,44.23
2023-03-29T03:53:54.811Z,46.90
2023-03-29T03:56:46.291Z,45.96
2023-03-29T03:59:20.179Z,47.13
2023-03-29T04:01:56.474Z,49.64
2023-03-29T04:04:26.691Z,49.91
2023-03-29T04:07:05.708Z,48.97
2023-03-29T04:09:46.895Z,46.51
2023-03-29T04:12:34.200Z,44.29
2023-03-29T04:15:04.622Z,47.40
2023-03-29T04:17:35.277Z,45.43
2023-03-29T04:20:21.828Z,46.17
2023-03-29T04:22:50.987Z,45.59
2023-03-29T04:25:20.958Z,45.33
2023-03-29T04:27:51.707Z,46.46
2023-03-29T04:30:35.481Z,45.94
2023-03-29T04:33:22.748Z,48.29
2023-03-29T04:35:59.998Z,46.11
2023-03-29T04:38:29.303Z,46.41
2023-03-29T04:40:58.006Z,44.43
2023-03-29T04:43:48.689Z,44.65
2023-03-29T04:46:27.930Z,44.52
2023-03-29T04:49:35.333Z,44.65
2023-03-29T04:52:10.009Z,45.82
2023-03-29T04:54:39.900Z,51.06
2023-03-29T04:57:26.479Z,49.63
2023-03-29T05:00:27.874Z,49.19
2023-03-29T05:03:05.970Z,47.90
2023-03-29T05:05:39.520Z,46.99
2023-03-29T05:08:10.341Z,49.33
2023-03-29T05:10:53.464Z,47.07
2023-03-29T05:13:22.731Z,47.47
2023-03-29T05:15:52.844Z,49.97
2023-03-29T05:18:22.015Z,47.62
2023-03-29T05:20:54.019Z,44.93
2023-03-29T05:23:25.218Z,46.83
2023-03-29T05:26:16.238Z,47.49
2023-03-29T05:28:54.037Z,49.08
2023-03-29T05:31:24.289Z,49.29
2023-03-29T05:33:56.479Z,50.05
2023-03-29T05:36:25.803Z,49.36
2023-03-29T05:38:55.947Z,47.90
2023-03-29T05:41:27.055Z,47.18
2023-03-29T05:43:58.817Z,48.85
2023-03-29T05:46:28.740Z,48.04
2023-03-29T05:48:59.844Z,47.02
2023-03-29T05:51:46.578Z,47.28
2023-03-29T05:54:16.541Z,46.20
2023-03-29T05:56:45.500Z,44.78
2023-03-29T05:59:18.546Z,45.46
2023-03-29T06:01:48.822Z,46.90
2023-03-29T06:04:21.898Z,44.60
2023-03-29T06:07:02.986Z,46.05
2023-03-29T06:09:33.038Z,45.46
2023-03-29T06:12:05.109Z,44.32
2023-03-29T06:15:07.466Z,46.94
2023-03-29T06:17:48.355Z,45.75
2023-03-29T06:20:18.110Z,47.46
2023-03-29T06:22:51.834Z,46.58
2023-03-29T06:25:22.121Z,45.62
2023-03-29T06:27:53.087Z,42.21
2023-03-29T06:30:22.664Z,47.05
2023-03-29T06:32:56.436Z,49.02
2023-03-29T06:35:48.438Z,46.04
2023-03-29T06:38:25.594Z,42.28
2023-03-29T06:41:11.433Z,48.01
2023-03-29T06:43:56.159Z,42.41
2023-03-29T06:46:32.605Z,43.49
2023-03-29T06:49:07.151Z,46.17
2023-03-29T06:51:58.121Z,48.97
2023-03-29T06:54:27.860Z,51.81
2023-03-29T06:57:06.774Z,50.88
2023-03-29T06:59:36.636Z,53.51
2023-03-29T07:02:18.338Z,52.18
2023-03-29T07:04:52.565Z,52.74
2023-03-29T07:07:50.239Z,56.61
2023-03-29T07:10:36.565Z,54.91
2023-03-29T07:13:34.901Z,55.06
2023-03-29T07:16:15.888Z,54.93
2023-03-29T07:18:53.150Z,56.56
2023-03-29T07:21:55.238Z,58.68
2023-03-29T07:24:33.877Z,57.82
2023-03-29T07:27:04.683Z,63.59
2023-03-29T07:29:36.092Z,57.60
2023-03-29T07:32:05.313Z,59.06
2023-03-29T07:34:44.456Z,61.53
2023-03-29T07:37:21.744Z,59.22
2023-03-29T07:39:52.507Z,57.27
2023-03-29T07:42:47.256Z,57.79
2023-03-29T07:45:26.684Z,57.54
2023-03-29T07:48:02.524Z,59.05
2023-03-29T07:50:51.682Z,60.03
2023-03-29T07:53:27.986Z,67.33
2023-03-29T07:55:59.446Z,59.92
2023-03-29T07:58:47.386Z,63.34
2023-03-29T08:01:20.092Z,61.74
2023-03-29T08:04:18.822Z,60.68
2023-03-29T08:07:06.841Z,63.54
2023-03-29T08:10:14.499Z,64.52
2023-03-29T08:12:56.011Z,57.42
2023-03-29T08:15:32.931Z,60.62
2023-03-29T08:18:01.910Z,56.31
2023-03-29T08:20:31.008Z,61.46
2023-03-29T08:23:04.254Z,55.82
2023-03-29T08:25:51.799Z,58.44
2023-03-29T08:28:21.430Z,57.15
2023-03-29T08:30:53.685Z,64.09
2023-03-29T08:33:24.471Z,61.90
2023-03-29T08:36:09.378Z,57.61
2023-03-29T08:38:40.250Z,57.51
2023-03-29T08:41:41.918Z,61.26
2023-03-29T08:44:26.114Z,60.52
2023-03-29T08:47:18.113Z,57.82
2023-03-29T08:49:55.662Z,62.72
2023-03-29T08:52:57.208Z,57.37
2023-03-29T08:56:12.733Z,62.27
2023-03-29T08:59:21.909Z,68.91
2023-03-29T09:01:55.684Z,62.14
2023-03-29T09:04:39.095Z,57.86
2023-03-29T09:07:21.161Z,62.18
2023-03-29T09:09:52.412Z,56.36
2023-03-29T09:13:28.584Z,61.45
2023-03-29T09:16:31.458Z,66.22
2023-03-29T09:19:36.171Z,62.38
2023-03-29T09:22:38.680Z,62.14
2023-03-29T09:25:08.283Z,65.42
2023-03-29T09:27:50.454Z,69.88
2023-03-29T09:30:43.811Z,70.08
2023-03-29T09:33:35.617Z,68.52
2023-03-29T09:36:15.854Z,69.51
2023-03-29T09:38:51.936Z,69.22
2023-03-29T09:41:43.334Z,68.92
2023-03-29T09:44:30.753Z,68.44
2023-03-29T09:47:21.983Z,66.10
2023-03-29T09:49:54.627Z,65.68
2023-03-29T09:52:26.890Z,63.95
2023-03-29T09:55:28.202Z,66.05
2023-03-29T09:58:16.371Z,67.59
2023-03-29T10:00:50.173Z,63.55
2023-03-29T10:03:25.644Z,64.51
2023-03-29T10:06:12.830Z,66.76
2023-03-29T10:08:52.212Z,63.42
2023-03-29T10:11:34.092Z,64.77
2023-03-29T10:14:42.822Z,62.99
2023-03-29T10:17:28.793Z,63.04
2023-03-29T10:20:03.753Z,63.21
2023-03-29T10:22:38.567Z,60.93
2023-03-29T10:25:15.369Z,62.09
2023-03-29T10:27:50.148Z,59.08
2023-03-29T10:30:24.648Z,62.87
2023-03-29T10:32:59.171Z,65.07
2023-03-29T10:35:43.235Z,67.15
2023-03-29T10:38:16.837Z,68.29
2023-03-29T10:40:48.037Z,68.54
2023-03-29T10:43:30.409Z,64.47
2023-03-29T10:46:15.085Z,63.92
2023-03-29T10:48:49.780Z,64.11
2023-03-29T10:51:21.195Z,65.95
2023-03-29T10:53:50.149Z,68.23
2023-03-29T10:56:55.138Z,71.82
2023-03-29T10:59:32.892Z,73.51
2023-03-29T11:02:16.613Z,75.34
2023-03-29T11:05:00.646Z,77.42
2023-03-29T11:07:34.900Z,78.45
2023-03-29T11:10:49.280Z,82.17
2023-03-29T11:13:49.149Z,86.69
2023-03-29T11:16:21.219Z,81.90
2023-03-29T11:19:11.189Z,94.07
2023-03-29T11:21:47.676Z,100.00
2023-03-29T11:24:41.772Z,100.00
2023-03-29T11:27:34.805Z,100.00
2023-03-29T11:30:31.796Z,100.00
2023-03-29T11:33:09.382Z,100.00
2023-03-29T11:36:06.691Z,100.00
2023-03-29T11:39:06.294Z,100.00
2023-03-29T11:41:40.539Z,100.00
2023-03-29T11:44:21.902Z,100.00
2023-03-29T11:47:09.957Z,100.00
2023-03-29T11:49:43.969Z,100.00
2023-03-29T11:52:25.739Z,100.00
2023-03-29T11:55:06.601Z,100.00
2023-03-29T11:57:59.605Z,100.00
2023-03-29T12:00:48.960Z,100.00
2023-03-29T12:03:40.394Z,100.00
2023-03-29T12:06:31.137Z,100.00
2023-03-29T12:09:24.594Z,100.00
2023-03-29T12:12:04.578Z,100.00
2023-03-29T12:15:04.167Z,100.00
2023-03-29T12:17:45.048Z,100.00
2023-03-29T12:20:24.365Z,100.00
2023-03-29T12:22:57.584Z,100.00
2023-03-29T12:25:39.837Z,100.00
2023-03-29T12:28:25.891Z,100.00
2023-03-29T12:31:03.779Z,100.00
2023-03-29T12:34:07.035Z,100.00
2023-03-29T12:37:26.293Z,100.00
2023-03-29T12:40:18.824Z,100.00
2023-03-29T12:43:32.232Z,100.00
2023-03-29T12:46:24.964Z,100.00
2023-03-29T12:49:12.535Z,100.00
2023-03-29T12:51:44.235Z,100.00
2023-03-29T12:54:22.289Z,100.00
2023-03-29T12:56:59.228Z,100.00
2023-03-29T12:59:54.548Z,100.00
2023-03-29T13:02:23.458Z,100.00
2023-03-29T13:04:57.650Z,100.00
2023-03-29T13:07:29.845Z,100.00
2023-03-29T13:10:04.450Z,100.00
2023-03-29T13:12:36.312Z,100.00
2023-03-29T13:15:20.171Z,100.00
2023-03-29T13:18:26.965Z,100.00
2023-03-29T13:21:25.399Z,100.00
2023-03-29T13:24:20.030Z,100.00
2023-03-29T13:27:06.649Z,100.00
2023-03-29T13:29:48.583Z,100.00
2023-03-29T13:32:39.085Z,100.00
2023-03-29T13:35:45.346Z,100.00
2023-03-29T13:38:29.471Z,100.00
2023-03-29T13:41:00.417Z,100.00
2023-03-29T13:43:43.164Z,100.00
2023-03-29T13:46:25.162Z,100.00
2023-03-29T13:49:15.423Z,100.00
2023-03-29T13:52:03.913Z,100.00
2023-03-29T13:54:43.801Z,100.00
2023-03-29T13:57:38.529Z,100.00
2023-03-29T14:00:22.592Z,100.00
2023-03-29T14:02:56.309Z,100.00
2023-03-29T14:05:36.521Z,100.00
2023-03-29T14:08:24.616Z,100.00
2023-03-29T14:10:54.823Z,100.00
2023-03-29T14:13:29.593Z,100.00
2023-03-29T14:16:05.206Z,100.00
2023-03-29T14:18:47.278Z,100.00
2023-03-29T14:21:17.117Z,100.00
2023-03-29T14:23:48.987Z,100.00
2023-03-29T14:26:24.879Z,100.00
2023-03-29T14:28:59.314Z,100.00
2023-03-29T14:31:31.799Z,100.00
2023-03-29T14:34:03.197Z,100.00
2023-03-29T14:36:34.786Z,100.00
2023-03-29T14:39:20.037Z,100.00
2023-03-29T14:42:01.304Z,100.00
2023-03-29T14:45:10.872Z,100.00
2023-03-29T14:47:56.834Z,100.00
2023-03-29T14:50:31.096Z,100.00
2023-03-29T14:53:02.221Z,100.00
2023-03-29T14:56:09.894Z,100.00
2023-03-29T14:58:41.435Z,100.00
2023-03-29T15:02:07.155Z,100.00
2023-03-29T15:04:38.326Z,100.00
2023-03-29T15:07:26.704Z,100.00
2023-03-29T15:10:00.000Z,100.00
2023-03-29T15:12:34.545Z,100.00
2023-03-29T15:15:05.515Z,100.00
2023-03-29T15:17:51.197Z,100.00
2023-03-29T15:20:47.061Z,100.00
2023-03-29T15:23:16.505Z,100.00
2023-03-29T15:25:53.426Z,100.00
2023-03-29T15:28:35.180Z,100.00
2023-03-29T15:31:15.153Z,100.00
2023-03-29T15:33:44.691Z,100.00
2023-03-29T15:36:15.509Z,100.00
2023-03-29T15:38:45.575Z,100.00
2023-03-29T15:41:16.730Z,100.00
2023-03-29T15:43:50.200Z,100.00
2023-03-29T15:46:32.059Z,100.00
2023-03-29T15:49:02.237Z,100.00
2023-03-29T15:51:32.373Z,100.00
2023-03-29T15:54:02.234Z,100.00
2023-03-29T15:56:44.172Z,100.00
2023-03-29T15:59:14.167Z,100.00
2023-03-29T16:01:44.717Z,100.00
2023-03-29T16:04:20.060Z,100.00
2023-03-29T16:06:54.194Z,100.00
2023-03-29T16:09:25.212Z,100.00
2023-03-29T16:11:55.322Z,100.00
2023-03-29T16:14:28.218Z,100.00
2023-03-29T16:17:00.523Z,100.00
2023-03-29T16:19:32.480Z,100.00
2023-03-29T16:22:08.283Z,100.00
2023-03-29T16:24:41.178Z,100.00
2023-03-29T16:27:10.902Z,100.00
2023-03-29T16:29:40.506Z,100.00
2023-03-29T16:32:12.354Z,100.00
2023-03-29T16:34:43.213Z,100.00
2023-03-29T16:37:13.790Z,100.00
2023-03-29T16:39:44.225Z,100.00
